createdAt,value
2022-12-19T00:00:29.762Z,1.92
2022-12-19T00:01:29.840Z,1.84
2022-12-19T00:02:29.892Z,1.87
2022-12-19T00:03:29.884Z,1.89
2022-12-19T00:04:29.713Z,1.82
2022-12-19T00:05:29.700Z,1.85
2022-12-19T00:06:29.682Z,1.87
2022-12-19T00:07:29.670Z,1.95
2022-12-19T00:08:29.743Z,1.82
2022-12-19T00:09:29.649Z,1.87
2022-12-19T00:10:29.632Z,1.91
2022-12-19T00:11:29.635Z,1.95
2022-12-19T00:12:29.610Z,1.91
2022-12-19T00:13:29.593Z,1.93
2022-12-19T00:14:29.607Z,2.04
2022-12-19T00:15:29.582Z,2.06
2022-12-19T00:16:29.749Z,2.00
2022-12-19T00:17:29.560Z,1.97
2022-12-19T00:18:29.535Z,2.03
2022-12-19T00:19:29.518Z,2.01
2022-12-19T00:20:29.512Z,1.97
2022-12-19T00:21:29.498Z,1.89
2022-12-19T00:22:29.490Z,1.95
2022-12-19T00:23:29.464Z,1.92
2022-12-19T00:24:29.528Z,1.91
2022-12-19T00:25:29.452Z,1.93
2022-12-19T00:26:29.436Z,1.87
2022-12-19T00:27:29.439Z,1.82
2022-12-19T00:28:29.405Z,1.82
2022-12-19T00:29:29.392Z,1.82
2022-12-19T00:30:29.379Z,1.84
2022-12-19T00:31:29.399Z,1.85
2022-12-19T00:32:29.351Z,1.80
2022-12-19T00:33:29.341Z,1.81
2022-12-19T00:34:29.330Z,1.71
2022-12-19T00:35:29.317Z,1.66
2022-12-19T00:36:29.300Z,1.67
2022-12-19T00:37:29.286Z,1.77
2022-12-19T00:38:29.276Z,1.69
2022-12-19T00:39:29.261Z,1.74
2022-12-19T00:40:29.327Z,1.77
2022-12-19T00:41:29.241Z,1.78
2022-12-19T00:42:29.227Z,1.77
2022-12-19T00:43:29.208Z,1.75
2022-12-19T00:44:29.198Z,1.77
2022-12-19T00:45:29.263Z,1.80
2022-12-19T00:46:29.181Z,1.80
2022-12-19T00:47:29.150Z,1.80
2022-12-19T00:48:29.145Z,1.92
2022-12-19T00:49:29.140Z,1.95
2022-12-19T00:50:29.120Z,1.97
2022-12-19T00:51:29.104Z,1.89
2022-12-19T00:52:29.512Z,1.97
2022-12-19T00:53:29.087Z,1.97
2022-12-19T00:54:29.114Z,1.91
2022-12-19T00:55:29.054Z,1.87
2022-12-19T00:56:29.136Z,1.95
2022-12-19T00:57:29.025Z,1.99
2022-12-19T00:58:29.015Z,2.07
2022-12-19T00:59:28.997Z,2.03
2022-12-19T01:00:28.985Z,2.04
2022-12-19T01:01:29.128Z,2.01
2022-12-19T01:02:29.019Z,2.06
2022-12-19T01:03:28.940Z,2.04
2022-12-19T01:04:29.991Z,2.04
2022-12-19T01:05:28.914Z,2.07
2022-12-19T01:06:28.905Z,2.18
2022-12-19T01:07:28.893Z,2.30
2022-12-19T01:08:28.869Z,2.32
2022-12-19T01:09:28.864Z,2.15
2022-12-19T01:10:28.849Z,2.22
2022-12-19T01:11:28.834Z,2.33
2022-12-19T01:12:28.903Z,2.43
2022-12-19T01:13:28.801Z,2.35
2022-12-19T01:14:28.796Z,2.40
2022-12-19T01:15:28.778Z,2.32
2022-12-19T01:16:28.825Z,2.37
2022-12-19T01:17:28.761Z,2.33
2022-12-19T01:18:28.744Z,2.29
2022-12-19T01:19:28.732Z,2.30
2022-12-19T01:20:29.494Z,2.24
2022-12-19T01:21:28.702Z,2.21
2022-12-19T01:22:28.695Z,2.37
2022-12-19T01:23:28.675Z,2.47
2022-12-19T01:24:28.663Z,2.36
2022-12-19T01:25:28.677Z,2.29
2022-12-19T01:26:28.636Z,2.37
2022-12-19T01:27:28.628Z,2.36
2022-12-19T01:28:34.558Z,2.30
2022-12-19T01:29:28.677Z,2.45
2022-12-19T01:30:29.209Z,2.35
2022-12-19T01:31:28.614Z,2.43
2022-12-19T01:32:28.562Z,2.39
2022-12-19T01:33:28.545Z,2.40
2022-12-19T01:34:28.535Z,2.40
2022-12-19T01:35:28.520Z,2.42
2022-12-19T01:36:28.525Z,2.40
2022-12-19T01:37:28.501Z,2.42
2022-12-19T01:38:28.485Z,2.42
2022-12-19T01:39:28.462Z,2.45
2022-12-19T01:40:28.460Z,2.47
2022-12-19T01:41:28.442Z,2.43
2022-12-19T01:42:28.431Z,2.54
2022-12-19T01:43:28.417Z,2.51
2022-12-19T01:44:28.404Z,2.40
2022-12-19T01:45:34.025Z,2.50
2022-12-19T01:46:28.469Z,2.47
2022-12-19T01:47:28.366Z,2.50
2022-12-19T01:48:28.352Z,2.39
2022-12-19T01:49:28.334Z,2.43
2022-12-19T01:50:28.328Z,2.48
2022-12-19T01:51:28.312Z,2.51
2022-12-19T01:52:28.301Z,2.45
2022-12-19T01:53:28.290Z,2.48
2022-12-19T01:54:28.272Z,2.51
2022-12-19T01:55:28.262Z,2.51
2022-12-19T01:56:28.229Z,2.58
2022-12-19T01:57:28.204Z,2.60
2022-12-19T01:58:28.193Z,2.60
2022-12-19T01:59:28.197Z,2.63
2022-12-19T02:00:28.176Z,2.54
2022-12-19T02:01:28.418Z,2.66
2022-12-19T02:02:28.240Z,2.53
2022-12-19T02:03:28.127Z,2.65
2022-12-19T02:04:30.247Z,2.60
2022-12-19T02:05:28.100Z,2.54
2022-12-19T02:06:28.092Z,2.65
2022-12-19T02:07:28.074Z,2.63
2022-12-19T02:08:28.068Z,2.66
2022-12-19T02:09:28.051Z,2.63
2022-12-19T02:10:28.038Z,2.63
2022-12-19T02:11:28.024Z,2.61
2022-12-19T02:12:28.016Z,2.69
2022-12-19T02:13:28.001Z,2.66
2022-12-19T02:14:27.988Z,2.66
2022-12-19T02:15:27.973Z,2.73
2022-12-19T02:16:30.277Z,2.71
2022-12-19T02:17:28.033Z,2.68
2022-12-19T02:18:27.942Z,2.65
2022-12-19T02:19:27.923Z,2.73
2022-12-19T02:20:27.918Z,2.78
2022-12-19T02:21:27.909Z,2.68
2022-12-19T02:22:27.889Z,2.71
2022-12-19T02:23:27.887Z,2.79
2022-12-19T02:24:27.866Z,2.82
2022-12-19T02:25:27.846Z,2.65
2022-12-19T02:26:27.837Z,2.71
2022-12-19T02:27:27.840Z,2.63
2022-12-19T02:28:27.808Z,2.69
2022-12-19T02:29:27.802Z,2.72
2022-12-19T02:30:27.793Z,2.68
2022-12-19T02:31:27.860Z,2.61
2022-12-19T02:32:27.761Z,2.68
2022-12-19T02:33:27.840Z,2.65
2022-12-19T02:34:27.739Z,2.63
2022-12-19T02:35:27.728Z,2.57
2022-12-19T02:36:27.718Z,2.54
2022-12-19T02:37:27.696Z,2.54
2022-12-19T02:38:27.704Z,2.65
2022-12-19T02:39:28.794Z,2.55
2022-12-19T02:40:27.667Z,2.66
2022-12-19T02:41:27.657Z,2.65
2022-12-19T02:42:27.638Z,2.75
2022-12-19T02:43:27.627Z,2.72
2022-12-19T02:44:27.622Z,2.69
2022-12-19T02:45:28.740Z,2.75
2022-12-19T02:46:27.639Z,2.73
2022-12-19T02:47:27.586Z,2.75
2022-12-19T02:48:27.564Z,2.76
2022-12-19T02:49:30.602Z,2.75
2022-12-19T02:50:27.544Z,2.84
2022-12-19T02:51:27.537Z,2.90
2022-12-19T02:52:27.528Z,2.75
2022-12-19T02:53:27.504Z,2.86
2022-12-19T02:54:27.489Z,2.76
2022-12-19T02:55:27.496Z,2.82
2022-12-19T02:56:27.469Z,2.76
2022-12-19T02:57:28.167Z,2.71
2022-12-19T02:58:27.447Z,2.72
2022-12-19T02:59:27.433Z,2.75
2022-12-19T03:00:27.421Z,2.73
2022-12-19T03:01:27.461Z,2.75
2022-12-19T03:02:27.566Z,2.76
2022-12-19T03:03:27.416Z,2.71
2022-12-19T03:04:27.382Z,2.72
2022-12-19T03:05:27.449Z,2.86
2022-12-19T03:06:27.347Z,2.73
2022-12-19T03:07:27.337Z,2.84
2022-12-19T03:08:27.323Z,2.76
2022-12-19T03:09:27.313Z,2.81
2022-12-19T03:10:27.297Z,2.91
2022-12-19T03:11:27.279Z,2.91
2022-12-19T03:12:27.276Z,2.99
2022-12-19T03:13:27.263Z,2.94
2022-12-19T03:14:27.250Z,2.89
2022-12-19T03:15:27.234Z,2.93
2022-12-19T03:16:27.238Z,2.96
2022-12-19T03:17:27.210Z,2.84
2022-12-19T03:18:27.203Z,2.89
2022-12-19T03:19:27.183Z,2.94
2022-12-19T03:20:27.172Z,2.94
2022-12-19T03:21:27.242Z,2.94
2022-12-19T03:22:27.147Z,2.94
2022-12-19T03:23:27.133Z,2.86
2022-12-19T03:24:27.124Z,2.96
2022-12-19T03:25:27.119Z,3.02
2022-12-19T03:26:27.098Z,3.00
2022-12-19T03:27:27.092Z,2.90
2022-12-19T03:28:27.083Z,3.05
2022-12-19T03:29:27.068Z,2.89
2022-12-19T03:30:27.115Z,2.96
2022-12-19T03:31:27.037Z,2.90
2022-12-19T03:32:27.030Z,2.89
2022-12-19T03:33:27.013Z,2.86
2022-12-19T03:34:27.003Z,2.91
2022-12-19T03:35:26.989Z,3.00
2022-12-19T03:36:26.975Z,2.91
2022-12-19T03:37:27.044Z,2.93
2022-12-19T03:38:26.957Z,2.94
2022-12-19T03:39:26.966Z,3.04
2022-12-19T03:40:26.935Z,2.90
2022-12-19T03:41:26.917Z,3.05
2022-12-19T03:42:26.897Z,3.04
2022-12-19T03:43:26.888Z,3.04
2022-12-19T03:44:26.878Z,3.09
2022-12-19T03:45:26.870Z,3.14
2022-12-19T03:46:26.882Z,3.15
2022-12-19T03:47:26.848Z,3.12
2022-12-19T03:48:26.833Z,3.11
2022-12-19T03:49:26.817Z,3.17
2022-12-19T03:50:26.806Z,3.23
2022-12-19T03:51:26.795Z,3.22
2022-12-19T03:52:26.782Z,3.22
2022-12-19T03:53:26.852Z,3.23
2022-12-19T03:54:26.759Z,3.27
2022-12-19T03:55:26.763Z,3.36
2022-12-19T03:56:26.739Z,3.32
2022-12-19T03:57:26.718Z,3.30
2022-12-19T03:58:26.714Z,3.35
2022-12-19T03:59:26.696Z,3.20
2022-12-19T04:00:26.688Z,3.20
2022-12-19T04:01:26.707Z,3.20
2022-12-19T04:02:26.739Z,3.26
2022-12-19T04:03:26.671Z,3.26
2022-12-19T04:04:26.640Z,3.25
2022-12-19T04:05:26.638Z,3.14
2022-12-19T04:06:26.614Z,3.15
2022-12-19T04:07:26.602Z,3.23
2022-12-19T04:08:26.590Z,3.32
2022-12-19T04:09:26.655Z,3.20
2022-12-19T04:10:26.565Z,3.22
2022-12-19T04:11:26.551Z,3.23
2022-12-19T04:12:26.539Z,3.22
2022-12-19T04:13:26.532Z,3.23
2022-12-19T04:14:26.523Z,3.22
2022-12-19T04:15:26.571Z,3.12
2022-12-19T04:16:26.492Z,3.20
2022-12-19T04:17:26.487Z,3.12
2022-12-19T04:18:26.475Z,3.14
2022-12-19T04:19:26.462Z,3.15
2022-12-19T04:20:26.453Z,3.05
2022-12-19T04:21:26.434Z,3.15
2022-12-19T04:22:26.422Z,3.17
2022-12-19T04:23:26.411Z,3.15
2022-12-19T04:24:26.399Z,3.22
2022-12-19T04:25:29.553Z,3.15
2022-12-19T04:26:26.374Z,3.15
2022-12-19T04:27:26.362Z,3.14
2022-12-19T04:28:26.353Z,3.22
2022-12-19T04:29:26.344Z,3.32
2022-12-19T04:30:26.327Z,3.36
2022-12-19T04:31:26.350Z,3.27
2022-12-19T04:32:26.304Z,3.32
2022-12-19T04:33:26.289Z,3.35
2022-12-19T04:34:26.282Z,3.35
2022-12-19T04:35:26.270Z,3.49
2022-12-19T04:36:26.255Z,3.35
2022-12-19T04:37:26.245Z,3.36
2022-12-19T04:38:26.233Z,3.44
2022-12-19T04:39:26.216Z,3.36
2022-12-19T04:40:26.206Z,3.36
2022-12-19T04:41:26.282Z,3.41
2022-12-19T04:42:26.185Z,3.44
2022-12-19T04:43:26.173Z,3.44
2022-12-19T04:44:26.158Z,3.56
2022-12-19T04:45:26.152Z,3.54
2022-12-19T04:46:26.182Z,3.56
2022-12-19T04:47:26.121Z,3.52
2022-12-19T04:48:26.109Z,3.51
2022-12-19T04:49:26.096Z,3.54
2022-12-19T04:50:26.082Z,3.52
2022-12-19T04:51:26.192Z,3.37
2022-12-19T04:52:26.059Z,3.51
2022-12-19T04:53:26.047Z,3.48
2022-12-19T04:54:26.043Z,3.49
2022-12-19T04:55:26.031Z,3.46
2022-12-19T04:56:26.087Z,3.44
2022-12-19T04:57:26.080Z,3.60
2022-12-19T04:58:25.986Z,3.56
2022-12-19T04:59:25.972Z,3.51
2022-12-19T05:00:25.971Z,3.54
2022-12-19T05:01:26.057Z,3.51
2022-12-19T05:02:26.136Z,3.51
2022-12-19T05:03:25.960Z,3.52
2022-12-19T05:04:25.920Z,3.44
2022-12-19T05:05:25.904Z,3.48
2022-12-19T05:06:25.990Z,3.45
2022-12-19T05:07:25.878Z,3.42
2022-12-19T05:08:25.867Z,3.48
2022-12-19T05:09:25.855Z,3.37
2022-12-19T05:10:25.840Z,3.35
2022-12-19T05:11:25.829Z,3.44
2022-12-19T05:12:25.820Z,3.42
2022-12-19T05:13:25.916Z,3.45
2022-12-19T05:14:25.798Z,3.35
2022-12-19T05:15:25.784Z,3.42
2022-12-19T05:16:25.812Z,3.49
2022-12-19T05:17:25.757Z,3.48
2022-12-19T05:18:25.754Z,3.48
2022-12-19T05:19:25.741Z,3.41
2022-12-19T05:20:25.719Z,3.45
2022-12-19T05:21:25.797Z,3.46
2022-12-19T05:22:25.699Z,3.49
2022-12-19T05:23:25.683Z,3.62
2022-12-19T05:24:25.689Z,3.66
2022-12-19T05:25:25.664Z,3.62
2022-12-19T05:26:25.651Z,3.67
2022-12-19T05:27:25.637Z,3.70
2022-12-19T05:28:25.626Z,3.66
2022-12-19T05:29:25.702Z,3.67
2022-12-19T05:30:25.603Z,3.64
2022-12-19T05:31:25.628Z,3.69
2022-12-19T05:32:25.585Z,3.80
2022-12-19T05:33:25.573Z,3.76
2022-12-19T05:34:25.561Z,3.74
2022-12-19T05:35:25.541Z,3.76
2022-12-19T05:36:32.159Z,3.88
2022-12-19T05:37:25.522Z,3.84
2022-12-19T05:38:25.520Z,3.76
2022-12-19T05:39:25.526Z,3.88
2022-12-19T05:40:25.515Z,3.91
2022-12-19T05:41:25.490Z,3.87
2022-12-19T05:42:25.465Z,3.87
2022-12-19T05:43:25.441Z,3.94
2022-12-19T05:44:25.447Z,3.73
2022-12-19T05:45:25.510Z,3.78
2022-12-19T05:46:25.452Z,3.80
2022-12-19T05:47:25.405Z,3.80
2022-12-19T05:48:25.395Z,3.78
2022-12-19T05:49:25.386Z,3.76
2022-12-19T05:50:25.370Z,3.74
2022-12-19T05:51:25.364Z,3.80
2022-12-19T05:52:25.346Z,3.72
2022-12-19T05:53:26.208Z,3.78
2022-12-19T05:54:25.327Z,3.80
2022-12-19T05:55:25.307Z,3.63
2022-12-19T05:56:25.299Z,3.73
2022-12-19T05:57:25.291Z,3.81
2022-12-19T05:58:25.276Z,3.82
2022-12-19T05:59:25.269Z,3.76
2022-12-19T06:00:25.255Z,3.72
2022-12-19T06:01:25.416Z,3.76
2022-12-19T06:02:25.363Z,3.69
2022-12-19T06:03:25.289Z,3.78
2022-12-19T06:04:25.214Z,3.80
2022-12-19T06:05:25.196Z,3.76
2022-12-19T06:06:25.191Z,3.74
2022-12-19T06:07:25.172Z,3.72
2022-12-19T06:08:25.174Z,3.67
2022-12-19T06:09:25.179Z,3.67
2022-12-19T06:10:25.139Z,3.72
2022-12-19T06:11:25.128Z,3.73
2022-12-19T06:12:25.115Z,3.67
2022-12-19T06:13:25.307Z,3.67
2022-12-19T06:14:25.108Z,3.64
2022-12-19T06:15:25.086Z,3.62
2022-12-19T06:16:25.144Z,3.76
2022-12-19T06:17:25.141Z,3.66
2022-12-19T06:18:25.047Z,3.63
2022-12-19T06:19:25.029Z,3.62
2022-12-19T06:20:25.021Z,3.46
2022-12-19T06:21:25.019Z,3.59
2022-12-19T06:22:25.006Z,3.60
2022-12-19T06:23:24.997Z,3.64
2022-12-19T06:24:24.984Z,3.49
2022-12-19T06:25:24.974Z,3.51
2022-12-19T06:26:24.959Z,3.51
2022-12-19T06:27:24.951Z,3.55
2022-12-19T06:28:24.934Z,3.69
2022-12-19T06:29:24.926Z,3.62
2022-12-19T06:30:24.910Z,3.67
2022-12-19T06:31:24.958Z,3.69
2022-12-19T06:32:24.891Z,3.74
2022-12-19T06:33:24.986Z,3.67
2022-12-19T06:34:55.184Z,3.72
2022-12-19T06:35:24.855Z,3.78
2022-12-19T06:36:24.844Z,3.73
2022-12-19T06:37:24.833Z,3.80
2022-12-19T06:38:24.819Z,3.74
2022-12-19T06:39:24.828Z,3.80
2022-12-19T06:40:24.799Z,3.74
2022-12-19T06:41:24.796Z,3.80
2022-12-19T06:42:24.777Z,3.85
2022-12-19T06:43:24.771Z,3.84
2022-12-19T06:44:24.760Z,3.80
2022-12-19T06:45:24.819Z,3.82
2022-12-19T06:46:24.736Z,3.85
2022-12-19T06:47:24.763Z,3.90
2022-12-19T06:48:24.711Z,3.87
2022-12-19T06:49:24.796Z,3.88
2022-12-19T06:50:24.689Z,3.98
2022-12-19T06:51:24.672Z,3.99
2022-12-19T06:52:24.665Z,3.94
2022-12-19T06:53:24.654Z,4.00
2022-12-19T06:54:24.648Z,3.98
2022-12-19T06:55:24.630Z,3.98
2022-12-19T06:56:24.617Z,3.98
2022-12-19T06:57:24.608Z,3.94
2022-12-19T06:58:24.652Z,3.99
2022-12-19T06:59:24.585Z,3.96
2022-12-19T07:00:24.577Z,3.98
2022-12-19T07:01:24.683Z,4.00
2022-12-19T07:02:24.652Z,4.00
2022-12-19T07:03:24.546Z,3.98
2022-12-19T07:04:24.534Z,3.99
2022-12-19T07:05:24.603Z,3.98
2022-12-19T07:06:24.509Z,3.99
2022-12-19T07:07:24.530Z,4.00
2022-12-19T07:08:24.492Z,3.99
2022-12-19T07:09:24.472Z,4.03
2022-12-19T07:10:24.547Z,4.00
2022-12-19T07:11:24.452Z,3.99
2022-12-19T07:12:24.462Z,4.10
2022-12-19T07:13:24.431Z,4.00
2022-12-19T07:14:24.420Z,4.02
2022-12-19T07:15:24.418Z,3.99
2022-12-19T07:16:24.427Z,4.10
2022-12-19T07:17:24.384Z,4.00
2022-12-19T07:18:24.373Z,4.00
2022-12-19T07:19:24.358Z,4.02
2022-12-19T07:20:24.346Z,4.06
2022-12-19T07:21:24.423Z,4.02
2022-12-19T07:22:24.323Z,4.03
2022-12-19T07:23:24.308Z,4.05
2022-12-19T07:24:24.305Z,4.02
2022-12-19T07:25:24.291Z,4.02
2022-12-19T07:26:24.288Z,4.09
2022-12-19T07:27:25.653Z,4.06
2022-12-19T07:28:24.258Z,4.08
2022-12-19T07:29:24.260Z,4.10
2022-12-19T07:30:24.240Z,4.05
2022-12-19T07:31:24.301Z,4.12
2022-12-19T07:32:24.224Z,4.06
2022-12-19T07:33:24.204Z,4.03
2022-12-19T07:34:24.193Z,4.08
2022-12-19T07:35:24.191Z,4.02
2022-12-19T07:36:24.173Z,4.00
2022-12-19T07:37:24.254Z,3.98
2022-12-19T07:38:24.148Z,4.05
2022-12-19T07:39:24.141Z,4.06
2022-12-19T07:40:24.145Z,4.02
2022-12-19T07:41:24.119Z,4.08
2022-12-19T07:42:27.059Z,3.98
2022-12-19T07:43:24.098Z,4.00
2022-12-19T07:44:24.085Z,4.03
2022-12-19T07:45:24.097Z,4.03
2022-12-19T07:46:24.071Z,4.08
2022-12-19T07:47:24.047Z,4.05
2022-12-19T07:48:24.045Z,4.03
2022-12-19T07:49:24.030Z,4.02
2022-12-19T07:50:24.018Z,4.05
2022-12-19T07:51:24.006Z,4.02
2022-12-19T07:52:24.001Z,4.03
2022-12-19T07:53:24.074Z,3.99
2022-12-19T07:54:23.976Z,3.99
2022-12-19T07:55:23.961Z,4.02
2022-12-19T07:56:23.954Z,4.00
2022-12-19T07:57:23.945Z,4.00
2022-12-19T07:58:23.932Z,3.99
2022-12-19T07:59:29.651Z,3.99
2022-12-19T08:00:23.905Z,4.03
2022-12-19T08:01:23.974Z,3.98
2022-12-19T08:02:23.975Z,4.00
2022-12-19T08:03:23.875Z,3.94
2022-12-19T08:04:23.861Z,4.00
2022-12-19T08:05:23.854Z,3.98
2022-12-19T08:06:23.845Z,3.94
2022-12-19T08:07:23.830Z,3.99
2022-12-19T08:08:23.824Z,3.98
2022-12-19T08:09:23.900Z,3.96
2022-12-19T08:10:23.800Z,3.99
2022-12-19T08:11:23.786Z,3.98
2022-12-19T08:12:23.779Z,4.05
2022-12-19T08:13:23.775Z,3.96
2022-12-19T08:14:23.754Z,3.99
2022-12-19T08:15:23.743Z,4.00
2022-12-19T08:16:23.762Z,3.99
2022-12-19T08:17:23.778Z,4.00
2022-12-19T08:18:23.760Z,4.02
2022-12-19T08:19:27.461Z,4.02
2022-12-19T08:20:23.688Z,4.09
2022-12-19T08:21:23.681Z,4.05
2022-12-19T08:22:23.666Z,4.02
2022-12-19T08:23:23.657Z,4.10
2022-12-19T08:24:23.659Z,4.03
2022-12-19T08:25:23.721Z,4.05
2022-12-19T08:26:23.626Z,4.00
2022-12-19T08:27:23.616Z,4.03
2022-12-19T08:28:23.606Z,4.03
2022-12-19T08:29:23.588Z,4.03
2022-12-19T08:30:23.582Z,4.13
2022-12-19T08:31:23.611Z,4.03
2022-12-19T08:32:23.563Z,4.13
2022-12-19T08:33:23.558Z,4.06
2022-12-19T08:34:23.546Z,4.10
2022-12-19T08:35:23.526Z,4.12
2022-12-19T08:36:23.517Z,4.13
2022-12-19T08:37:23.507Z,4.06
2022-12-19T08:38:23.499Z,4.09
2022-12-19T08:39:23.491Z,4.06
2022-12-19T08:40:23.479Z,4.09
2022-12-19T08:41:23.597Z,4.08
2022-12-19T08:42:23.454Z,4.17
2022-12-19T08:43:23.454Z,4.12
2022-12-19T08:44:23.445Z,4.17
2022-12-19T08:45:23.426Z,4.09
2022-12-19T08:46:23.453Z,4.06
2022-12-19T08:47:23.420Z,4.16
2022-12-19T08:48:23.385Z,4.17
2022-12-19T08:49:23.380Z,4.20
2022-12-19T08:50:23.399Z,4.10
2022-12-19T08:51:23.363Z,4.06
2022-12-19T08:52:23.349Z,4.13
2022-12-19T08:53:26.483Z,4.13
2022-12-19T08:54:23.317Z,4.20
2022-12-19T08:55:23.310Z,4.16
2022-12-19T08:56:23.298Z,4.05
2022-12-19T08:57:23.376Z,3.99
2022-12-19T08:58:23.280Z,4.02
2022-12-19T08:59:30.990Z,4.12
2022-12-19T09:00:23.258Z,4.05
2022-12-19T09:01:23.322Z,4.10
2022-12-19T09:02:23.403Z,4.12
2022-12-19T09:03:24.047Z,4.17
2022-12-19T09:05:26.028Z,4.20
2022-12-19T09:06:01.831Z,4.26
2022-12-19T09:06:23.219Z,4.23
2022-12-19T09:07:23.217Z,4.23
2022-12-19T09:08:23.191Z,4.24
2022-12-19T09:09:23.166Z,4.30
2022-12-19T09:10:23.161Z,4.27
2022-12-19T09:11:23.146Z,4.26
2022-12-19T09:12:23.135Z,4.31
2022-12-19T09:13:23.202Z,4.24
2022-12-19T09:14:23.124Z,4.34
2022-12-19T09:15:23.100Z,4.34
2022-12-19T09:16:23.154Z,4.34
2022-12-19T09:17:23.086Z,4.35
2022-12-19T09:18:23.778Z,4.39
2022-12-19T09:19:23.058Z,4.41
2022-12-19T09:20:23.777Z,4.41
2022-12-19T09:21:23.036Z,4.48
2022-12-19T09:22:27.602Z,4.41
2022-12-19T09:23:23.022Z,4.46
2022-12-19T09:24:23.006Z,4.46
2022-12-19T09:25:23.004Z,4.46
2022-12-19T09:26:22.990Z,4.41
2022-12-19T09:27:22.973Z,4.45
2022-12-19T09:28:27.740Z,4.42
2022-12-19T09:29:23.036Z,4.39
2022-12-19T09:30:22.999Z,4.36
2022-12-19T09:31:22.968Z,4.41
2022-12-19T09:32:22.930Z,4.41
2022-12-19T09:33:22.915Z,4.36
2022-12-19T09:34:22.899Z,4.42
2022-12-19T09:35:27.035Z,4.41
2022-12-19T09:36:22.895Z,4.39
2022-12-19T09:37:22.872Z,4.41
2022-12-19T09:38:22.861Z,4.41
2022-12-19T09:39:22.851Z,4.41
2022-12-19T09:40:22.901Z,4.38
2022-12-19T09:41:22.827Z,4.42
2022-12-19T09:42:22.817Z,4.46
2022-12-19T09:43:22.864Z,4.53
2022-12-19T09:44:22.798Z,4.53
2022-12-19T09:45:31.991Z,4.59
2022-12-19T09:46:22.797Z,4.53
2022-12-19T09:47:22.767Z,4.51
2022-12-19T09:48:24.880Z,4.54
2022-12-19T09:49:22.753Z,4.56
2022-12-19T09:50:22.739Z,4.56
2022-12-19T09:51:22.723Z,4.57
2022-12-19T09:52:22.716Z,4.56
2022-12-19T09:53:22.774Z,4.67
2022-12-19T09:54:22.697Z,4.79
2022-12-19T09:55:22.683Z,4.78
2022-12-19T09:56:22.676Z,4.75
2022-12-19T09:57:22.661Z,4.78
2022-12-19T09:58:22.660Z,4.86
2022-12-19T09:59:23.285Z,4.77
2022-12-19T10:00:22.650Z,4.91
2022-12-19T10:01:22.830Z,4.82
2022-12-19T10:02:22.751Z,4.79
2022-12-19T10:03:22.759Z,4.85
2022-12-19T10:04:22.615Z,4.82
2022-12-19T10:05:44.778Z,4.85
2022-12-19T10:07:12.617Z,4.82
2022-12-19T10:07:51.341Z,4.78
2022-12-19T10:08:22.549Z,4.83
2022-12-19T10:11:26.539Z,4.88
2022-12-19T10:12:34.643Z,4.89
2022-12-19T10:12:39.024Z,4.88
2022-12-19T10:12:43.863Z,4.75
2022-12-19T10:13:22.567Z,4.88
2022-12-19T10:14:22.494Z,4.88
2022-12-19T10:15:22.477Z,4.86
2022-12-19T10:16:22.501Z,4.91
2022-12-19T10:17:24.519Z,4.94
2022-12-19T10:18:22.450Z,4.94
2022-12-19T10:19:22.432Z,4.98
2022-12-19T10:20:22.424Z,5.04
2022-12-19T10:21:36.991Z,4.98
2022-12-19T10:22:22.405Z,4.88
2022-12-19T10:23:22.448Z,4.86
2022-12-19T10:24:22.399Z,4.98
2022-12-19T10:25:22.399Z,4.94
2022-12-19T10:26:22.375Z,4.89
2022-12-19T10:27:22.358Z,4.94
2022-12-19T10:28:22.345Z,4.94
2022-12-19T10:29:22.340Z,4.98
2022-12-19T10:30:22.324Z,4.86
2022-12-19T10:31:22.940Z,4.93
2022-12-19T10:32:22.303Z,4.91
2022-12-19T10:33:22.367Z,4.85
2022-12-19T10:34:22.313Z,5.00
2022-12-19T10:35:22.273Z,4.98
2022-12-19T10:36:36.255Z,5.01
2022-12-19T10:37:28.993Z,4.97
2022-12-19T10:38:22.276Z,4.97
2022-12-19T10:39:22.281Z,5.04
2022-12-19T10:40:28.280Z,5.01
2022-12-19T10:41:22.209Z,5.07
2022-12-19T10:42:22.199Z,5.03
2022-12-19T10:43:30.675Z,5.01
2022-12-19T10:44:22.179Z,5.01
2022-12-19T10:45:22.175Z,4.96
2022-12-19T10:46:22.234Z,5.04
2022-12-19T10:47:22.151Z,5.01
2022-12-19T10:48:24.286Z,5.03
2022-12-19T10:49:22.305Z,5.12
2022-12-19T10:50:22.133Z,5.09
2022-12-19T10:51:22.146Z,4.98
2022-12-19T10:52:22.100Z,5.03
2022-12-19T10:53:22.089Z,5.00
2022-12-19T10:54:22.082Z,5.00
2022-12-19T10:55:22.075Z,5.01
2022-12-19T10:56:22.073Z,5.04
2022-12-19T10:57:22.093Z,5.04
2022-12-19T10:58:22.050Z,5.11
2022-12-19T10:59:22.048Z,5.09
2022-12-19T11:00:22.035Z,5.04
2022-12-19T11:01:22.166Z,5.01
2022-12-19T11:02:22.070Z,5.03
2022-12-19T11:03:22.132Z,5.03
2022-12-19T11:04:22.038Z,5.04
2022-12-19T11:05:22.163Z,5.07
2022-12-19T11:06:22.025Z,5.03
2022-12-19T11:07:21.992Z,5.07
2022-12-19T11:08:21.966Z,5.06
2022-12-19T11:09:21.935Z,5.18
2022-12-19T11:10:56.926Z,5.07
2022-12-19T11:11:57.679Z,5.03
2022-12-19T11:16:09.556Z,5.11
2022-12-19T11:18:10.815Z,5.18
2022-12-19T11:20:06.090Z,5.04
2022-12-19T11:20:30.258Z,5.04
2022-12-19T11:20:48.577Z,5.09
2022-12-19T11:22:49.126Z,5.06
2022-12-19T11:27:11.684Z,5.07
2022-12-19T11:29:19.747Z,5.06
2022-12-19T11:29:31.324Z,5.03
2022-12-19T11:29:31.408Z,4.93
2022-12-19T11:29:34.684Z,5.16
2022-12-19T11:29:36.398Z,5.06
2022-12-19T11:29:38.939Z,5.14
2022-12-19T11:29:54.651Z,5.06
2022-12-19T11:30:08.864Z,5.06
2022-12-19T11:30:38.648Z,5.04
2022-12-19T11:30:44.127Z,5.03
2022-12-19T11:32:01.806Z,4.93
2022-12-19T11:32:20.600Z,4.98
2022-12-19T11:32:39.470Z,4.96
2022-12-19T11:33:21.742Z,5.00
2022-12-19T11:34:21.691Z,5.04
2022-12-19T11:35:24.224Z,5.00
2022-12-19T11:36:21.666Z,5.09
2022-12-19T11:37:21.735Z,5.04
2022-12-19T11:38:21.638Z,5.16
2022-12-19T11:39:21.645Z,5.18
2022-12-19T11:40:21.618Z,5.19
2022-12-19T11:41:21.611Z,5.29
2022-12-19T11:42:21.602Z,5.29
2022-12-19T11:44:21.579Z,5.30
2022-12-19T11:45:21.565Z,5.33
2022-12-19T11:46:22.404Z,5.32
2022-12-19T11:47:21.553Z,5.39
2022-12-19T11:48:21.548Z,5.33
2022-12-19T11:49:21.525Z,5.39
2022-12-19T11:50:21.532Z,5.36
2022-12-19T11:51:21.510Z,5.32
2022-12-19T11:53:02.370Z,5.34
2022-12-19T11:53:21.643Z,5.40
2022-12-19T11:54:21.492Z,5.36
2022-12-19T11:55:21.467Z,5.40
2022-12-19T11:56:21.478Z,5.36
2022-12-19T11:57:21.451Z,5.44
2022-12-19T11:58:21.442Z,5.48
2022-12-19T11:59:21.433Z,5.39
2022-12-19T12:00:21.425Z,5.52
2022-12-19T12:01:21.498Z,5.51
2022-12-19T12:02:21.405Z,5.54
2022-12-19T12:03:21.494Z,5.44
2022-12-19T12:04:21.439Z,5.47
2022-12-19T12:05:21.373Z,5.50
2022-12-19T12:06:24.227Z,5.51
2022-12-19T12:07:40.486Z,5.57
2022-12-19T12:08:57.668Z,5.57
2022-12-19T12:13:22.298Z,5.37
2022-12-19T12:13:35.597Z,5.55
2022-12-19T12:19:05.191Z,5.58
2022-12-19T12:19:30.626Z,5.65
2022-12-19T12:21:01.041Z,5.55
2022-12-19T12:21:24.966Z,5.50
2022-12-19T12:27:07.077Z,5.57
2022-12-19T12:30:14.651Z,5.54
2022-12-19T12:30:22.065Z,5.48
2022-12-19T12:31:08.619Z,5.52
2022-12-19T12:31:09.556Z,5.51
2022-12-19T12:31:13.060Z,5.54
2022-12-19T12:31:14.693Z,5.40
2022-12-19T12:31:30.701Z,5.61
2022-12-19T12:31:31.377Z,5.59
2022-12-19T12:31:32.655Z,5.61
2022-12-19T12:31:32.656Z,5.51
2022-12-19T12:31:40.507Z,5.54
2022-12-19T12:31:46.047Z,5.51
2022-12-19T12:31:46.051Z,5.51
2022-12-19T12:31:57.251Z,5.52
2022-12-19T12:35:09.576Z,5.54
2022-12-19T12:35:29.216Z,5.47
2022-12-19T12:35:33.273Z,5.44
2022-12-19T12:35:40.932Z,5.58
2022-12-19T12:37:55.764Z,5.47
2022-12-19T12:38:25.668Z,5.55
2022-12-19T12:39:26.677Z,5.61
2022-12-19T12:40:23.851Z,5.54
2022-12-19T12:41:21.026Z,5.48
2022-12-19T12:42:21.020Z,5.54
2022-12-19T12:43:21.002Z,5.52
2022-12-19T12:44:29.821Z,5.62
2022-12-19T12:45:20.984Z,5.67
2022-12-19T12:46:21.045Z,5.75
2022-12-19T12:47:20.972Z,5.75
2022-12-19T12:48:20.947Z,5.75
2022-12-19T12:49:20.943Z,5.85
2022-12-19T12:50:20.937Z,5.80
2022-12-19T12:51:20.922Z,5.91
2022-12-19T12:52:20.910Z,5.94
2022-12-19T12:53:20.905Z,5.94
2022-12-19T12:54:20.911Z,5.91
2022-12-19T12:55:20.886Z,5.98
2022-12-19T12:56:20.880Z,6.00
2022-12-19T12:57:20.887Z,6.03
2022-12-19T12:58:23.828Z,6.08
2022-12-19T12:59:20.843Z,6.09
2022-12-19T13:00:20.854Z,6.11
2022-12-19T13:01:20.961Z,6.13
2022-12-19T13:02:21.080Z,6.13
2022-12-19T13:03:20.851Z,6.18
2022-12-19T13:04:20.794Z,6.12
2022-12-19T13:05:20.796Z,6.16
2022-12-19T13:06:20.783Z,6.18
2022-12-19T13:07:20.797Z,6.24
2022-12-19T13:08:20.764Z,6.24
2022-12-19T13:09:20.757Z,6.19
2022-12-19T13:10:20.748Z,6.31
2022-12-19T13:11:20.733Z,6.34
2022-12-19T13:12:20.720Z,6.42
2022-12-19T13:13:25.747Z,6.37
2022-12-19T13:14:20.709Z,6.38
2022-12-19T13:15:20.699Z,6.38
2022-12-19T13:16:20.719Z,6.37
2022-12-19T13:17:20.686Z,6.45
2022-12-19T13:18:20.672Z,6.55
2022-12-19T13:19:27.531Z,6.52
2022-12-19T13:20:20.648Z,6.60
2022-12-19T13:21:20.645Z,6.56
2022-12-19T13:22:20.633Z,6.52
2022-12-19T13:23:20.624Z,6.63